WIMM/MES METAR and TAF weather

Enter ICAO airport designator
Station Type Date Time Source
WIMM METAR 2019/02/17 16:00 UTC NOAA

WIMM 171600Z 27006KT 3000 -TSRA FEW016CB BKN017 23/23 Q1014 NOSIG RMK CB TO N


Station Type Date Time Source
WIMM Decoded METAR 2019/02/17 16:00 UTC NOAA

Medan / Polonia, Indonesia (WIMM) 03-34N 098-41E 25M
Feb 17, 2019 - 11:00 AM EST / 2019.02.17 1600 UTC
Wind: from the W (270 degrees) at 7 MPH (6 KT):0
Visibility: 1 mile(s):0
Sky conditions: mostly cloudy
Weather: light rain with thunder; Cumulonimbus clouds observed
Temperature: 73 F (23 C)
Dew Point: 73 F (23 C)
Relative Humidity: 100%
Pressure (altimeter): 29.94 in. Hg (1014 hPa)
ob: WIMM 171600Z 27006KT 3000 -TSRA FEW016CB BKN017 23/23 Q1014 NOSIG RMK CB TO N
cycle: 16

Station Type Date Time Source
WIMM TAF 2019/02/17 12:09 UTC NOAA

TAF WIMM 171100Z 1712/1812 VRB03KT 3000 BR FEW017CB BKN018
TEMPO 1723/1800 00000KT 0900 FG
BECMG 1802/1804 03010KT 8000 SCT018


Example: see airport list